createdAt,value
2024-01-22T00:01:36.306Z,47.63
2024-01-22T00:04:03.586Z,48.44
2024-01-22T00:06:30.983Z,48.24
2024-01-22T00:08:58.084Z,48.30
2024-01-22T00:11:27.975Z,47.96
2024-01-22T00:13:55.370Z,49.18
2024-01-22T00:16:22.479Z,50.14
2024-01-22T00:18:50.030Z,50.85
2024-01-22T00:21:17.675Z,50.78
2024-01-22T00:23:56.181Z,50.30
2024-01-22T00:26:23.694Z,51.32
2024-01-22T00:28:50.615Z,51.70
2024-01-22T00:31:17.549Z,52.67
2024-01-22T00:33:45.572Z,52.63
2024-01-22T00:36:14.449Z,52.35
2024-01-22T00:38:42.586Z,52.19
2024-01-22T00:41:10.167Z,52.13
2024-01-22T00:43:38.951Z,51.62
2024-01-22T00:46:06.365Z,51.73
2024-01-22T00:48:39.861Z,51.06
2024-01-22T00:51:13.133Z,51.07
2024-01-22T00:53:40.150Z,50.47
2024-01-22T00:56:10.153Z,50.27
2024-01-22T00:58:37.785Z,50.22
2024-01-22T01:03:34.537Z,50.75
2024-01-22T01:06:09.514Z,50.05
2024-01-22T01:08:36.811Z,49.74
2024-01-22T01:11:04.947Z,50.71
2024-01-22T01:13:32.281Z,50.78
2024-01-22T01:15:59.241Z,51.00
2024-01-22T01:18:28.137Z,50.86
2024-01-22T01:20:55.128Z,50.51
2024-01-22T01:23:22.037Z,50.52
2024-01-22T01:25:49.193Z,50.14
2024-01-22T01:28:16.606Z,50.31
2024-01-22T01:30:43.739Z,50.37
2024-01-22T01:33:10.576Z,50.20
2024-01-22T01:35:38.257Z,49.28
2024-01-22T01:38:05.862Z,49.28
2024-01-22T01:40:32.872Z,49.16
2024-01-22T01:43:00.105Z,49.58
2024-01-22T01:45:27.450Z,50.03
2024-01-22T01:48:09.424Z,49.97
2024-01-22T01:50:37.701Z,50.02
2024-01-22T01:53:29.234Z,50.01
2024-01-22T01:55:58.314Z,50.88
2024-01-22T01:58:25.482Z,50.78
2024-01-22T02:00:55.891Z,50.66
2024-01-22T02:03:30.080Z,51.26
2024-01-22T02:05:58.545Z,51.87
2024-01-22T02:08:30.402Z,52.41
2024-01-22T02:10:57.334Z,51.28
2024-01-22T02:13:27.043Z,50.85
2024-01-22T02:15:54.177Z,50.22
2024-01-22T02:18:22.000Z,50.18
2024-01-22T02:20:49.182Z,49.41
2024-01-22T02:23:16.057Z,49.05
2024-01-22T02:25:45.128Z,49.08
2024-01-22T02:28:12.783Z,49.56
2024-01-22T02:30:40.040Z,50.03
2024-01-22T02:33:08.054Z,50.38
2024-01-22T02:35:35.603Z,50.55
2024-01-22T02:38:04.065Z,50.18
2024-01-22T02:40:33.328Z,50.10
2024-01-22T02:43:02.460Z,50.77
2024-01-22T02:45:29.943Z,50.86
2024-01-22T02:48:10.090Z,50.38
2024-01-22T02:50:37.463Z,49.50
2024-01-22T02:53:05.194Z,49.89
2024-01-22T02:55:31.943Z,49.83
2024-01-22T02:57:58.918Z,50.46
2024-01-22T03:00:36.446Z,50.33
2024-01-22T03:03:04.997Z,50.61
2024-01-22T03:05:48.618Z,50.56
2024-01-22T03:08:16.276Z,50.28
2024-01-22T03:10:51.234Z,49.51
2024-01-22T03:13:18.212Z,48.48
2024-01-22T03:15:45.170Z,48.18
2024-01-22T03:18:14.143Z,48.75
2024-01-22T03:20:46.533Z,48.43
2024-01-22T03:23:15.473Z,47.03
2024-01-22T03:25:42.439Z,46.57
2024-01-22T03:28:12.750Z,46.34
2024-01-22T03:30:39.748Z,45.83
2024-01-22T03:33:07.861Z,46.27
2024-01-22T03:35:39.421Z,46.50
2024-01-22T03:38:20.057Z,45.43
2024-01-22T03:40:50.220Z,46.04
2024-01-22T03:43:17.040Z,46.17
2024-01-22T03:45:44.198Z,46.03
2024-01-22T03:48:12.234Z,46.87
2024-01-22T03:50:40.452Z,48.19
2024-01-22T03:53:07.912Z,48.60
2024-01-22T03:55:35.181Z,49.12
2024-01-22T03:58:03.365Z,48.29
2024-01-22T04:00:30.674Z,48.98
2024-01-22T04:03:03.585Z,49.50
2024-01-22T04:05:30.996Z,48.73
2024-01-22T04:07:58.696Z,47.91
2024-01-22T04:10:26.450Z,47.96
2024-01-22T04:12:53.693Z,46.73
2024-01-22T04:15:24.823Z,46.15
2024-01-22T04:17:57.373Z,45.97
2024-01-22T04:20:24.976Z,46.02
2024-01-22T04:22:55.282Z,46.25
2024-01-22T04:25:22.390Z,46.95
2024-01-22T04:27:49.280Z,46.98
2024-01-22T04:30:16.643Z,45.51
2024-01-22T04:32:44.130Z,46.45
2024-01-22T04:35:11.541Z,45.36
2024-01-22T04:37:38.165Z,44.94
2024-01-22T04:40:12.810Z,47.08
2024-01-22T04:42:45.002Z,47.49
2024-01-22T04:45:12.619Z,47.01
2024-01-22T04:47:39.717Z,47.51
2024-01-22T04:50:23.793Z,48.86
2024-01-22T04:52:51.527Z,48.97
2024-01-22T04:55:22.131Z,49.80
2024-01-22T04:58:00.592Z,49.38
2024-01-22T05:00:28.297Z,49.77
2024-01-22T05:02:57.251Z,49.67
2024-01-22T05:05:26.214Z,49.89
2024-01-22T05:07:54.683Z,49.24
2024-01-22T05:10:22.646Z,49.60
2024-01-22T05:12:50.076Z,50.01
2024-01-22T05:15:22.025Z,50.56
2024-01-22T05:17:50.247Z,49.77
2024-01-22T05:20:19.761Z,48.60
2024-01-22T05:22:47.792Z,48.44
2024-01-22T05:25:28.462Z,48.46
2024-01-22T05:27:56.136Z,48.24
2024-01-22T05:30:25.322Z,48.06
2024-01-22T05:32:53.758Z,48.04
2024-01-22T05:35:21.065Z,48.04
2024-01-22T05:37:59.155Z,48.97
2024-01-22T05:40:26.470Z,49.85
2024-01-22T05:42:53.516Z,48.79
2024-01-22T05:45:20.716Z,49.44
2024-01-22T05:47:48.370Z,50.13
2024-01-22T05:50:17.000Z,50.11
2024-01-22T05:52:45.183Z,49.77
2024-01-22T05:55:20.606Z,49.01
2024-01-22T05:57:48.630Z,49.51
2024-01-22T06:00:16.558Z,50.54
2024-01-22T06:02:44.684Z,50.07
2024-01-22T06:05:17.055Z,49.40
2024-01-22T06:07:45.572Z,48.76
2024-01-22T06:10:19.801Z,48.14
2024-01-22T06:12:49.091Z,48.78
2024-01-22T06:15:16.558Z,48.72
2024-01-22T06:17:44.085Z,48.76
2024-01-22T06:20:13.440Z,48.76
2024-01-22T06:22:41.378Z,48.57
2024-01-22T06:25:08.729Z,49.39
2024-01-22T06:27:35.896Z,48.77
2024-01-22T06:30:04.046Z,48.25
2024-01-22T06:32:31.201Z,49.16
2024-01-22T06:34:58.437Z,48.70
2024-01-22T06:37:25.968Z,48.42
2024-01-22T06:39:54.014Z,48.70
2024-01-22T06:42:27.752Z,48.05
2024-01-22T06:45:04.429Z,47.34
2024-01-22T06:47:31.858Z,47.91
2024-01-22T06:49:59.204Z,47.27
2024-01-22T06:52:27.104Z,46.67
2024-01-22T06:54:53.941Z,45.82
2024-01-22T06:57:23.072Z,47.36
2024-01-22T06:59:56.412Z,45.37
2024-01-22T07:02:28.447Z,46.38
2024-01-22T07:04:57.480Z,44.99
2024-01-22T07:07:40.387Z,44.88
2024-01-22T07:10:09.565Z,44.77
2024-01-22T07:12:37.780Z,44.33
2024-01-22T07:15:11.285Z,45.77
2024-01-22T07:17:38.916Z,45.95
2024-01-22T07:20:07.337Z,45.96
2024-01-22T07:22:34.204Z,46.77
2024-01-22T07:25:08.165Z,45.95
2024-01-22T07:27:39.037Z,45.36
2024-01-22T07:30:14.893Z,46.47
2024-01-22T07:32:44.033Z,46.50
2024-01-22T07:35:17.905Z,47.10
2024-01-22T07:37:48.776Z,46.72
2024-01-22T07:40:16.075Z,47.04
2024-01-22T07:42:46.511Z,45.99
2024-01-22T07:45:15.732Z,45.31
2024-01-22T07:47:44.710Z,45.32
2024-01-22T07:50:14.972Z,45.20
2024-01-22T07:52:46.729Z,44.25
2024-01-22T07:55:18.110Z,43.63
2024-01-22T07:57:45.692Z,44.54
2024-01-22T08:00:13.861Z,43.55
2024-01-22T08:02:42.045Z,44.47
2024-01-22T08:05:15.602Z,45.01
2024-01-22T08:07:45.183Z,44.48
2024-01-22T08:10:14.271Z,45.42
2024-01-22T08:12:41.670Z,44.98
2024-01-22T08:15:17.737Z,45.32
2024-01-22T08:17:48.185Z,45.78
2024-01-22T08:20:20.249Z,45.59
2024-01-22T08:22:52.653Z,46.10
2024-01-22T08:25:33.466Z,46.43
2024-01-22T08:28:02.191Z,46.74
2024-01-22T08:30:36.968Z,46.55
2024-01-22T08:33:05.746Z,46.07
2024-01-22T08:35:32.905Z,46.39
2024-01-22T08:37:59.760Z,46.21
2024-01-22T08:40:28.151Z,46.37
2024-01-22T08:42:56.584Z,45.10
2024-01-22T08:45:28.537Z,41.86
2024-01-22T08:47:55.704Z,41.01
2024-01-22T08:50:23.899Z,41.04
2024-01-22T08:52:56.267Z,40.51
2024-01-22T08:55:29.658Z,39.77
2024-01-22T08:57:56.988Z,39.80
2024-01-22T09:00:25.858Z,39.82
2024-01-22T09:02:53.145Z,38.67
2024-01-22T09:05:20.981Z,38.77
2024-01-22T09:07:56.178Z,40.45
2024-01-22T09:10:26.091Z,41.20
2024-01-22T09:12:58.460Z,40.82
2024-01-22T09:15:25.328Z,41.26
2024-01-22T09:17:55.737Z,40.75
2024-01-22T09:20:23.896Z,41.64
2024-01-22T09:22:52.337Z,41.03
2024-01-22T09:25:21.256Z,41.08
2024-01-22T09:27:55.683Z,40.53
2024-01-22T09:30:24.865Z,40.47
2024-01-22T09:32:54.046Z,39.47
2024-01-22T09:35:21.165Z,40.41
2024-01-22T09:37:48.920Z,40.29
2024-01-22T09:40:22.184Z,40.33
2024-01-22T09:43:06.008Z,42.11
2024-01-22T09:45:34.816Z,42.61
2024-01-22T09:48:07.674Z,44.42
2024-01-22T09:50:34.808Z,41.89
2024-01-22T09:53:10.212Z,42.35
2024-01-22T09:55:42.059Z,42.57
2024-01-22T09:58:10.734Z,44.13
2024-01-22T10:00:39.811Z,44.43
2024-01-22T10:03:10.331Z,42.42
2024-01-22T10:05:37.590Z,42.09
2024-01-22T10:08:08.328Z,40.23
2024-01-22T10:10:35.346Z,38.99
2024-01-22T10:13:10.599Z,39.01
2024-01-22T10:15:38.792Z,39.25
2024-01-22T10:18:24.239Z,39.38
2024-01-22T10:20:58.125Z,40.67
2024-01-22T10:23:25.636Z,40.04
2024-01-22T10:25:52.786Z,40.56
2024-01-22T10:28:21.018Z,40.00
2024-01-22T10:31:04.603Z,39.96
2024-01-22T10:33:32.101Z,39.95
2024-01-22T10:36:15.864Z,39.85
2024-01-22T10:38:45.315Z,39.85
2024-01-22T10:41:19.138Z,40.07
2024-01-22T10:43:47.556Z,40.34
2024-01-22T10:46:15.629Z,39.80
2024-01-22T10:48:47.423Z,39.80
2024-01-22T10:51:16.641Z,40.72
2024-01-22T10:53:48.161Z,39.41
2024-01-22T10:56:19.855Z,39.95
2024-01-22T10:58:51.742Z,39.80
2024-01-22T11:01:23.503Z,39.49
2024-01-22T11:03:55.298Z,39.76
2024-01-22T11:06:26.337Z,37.91
2024-01-22T11:08:55.785Z,38.50
2024-01-22T11:11:29.030Z,38.67
2024-01-22T11:13:59.901Z,38.26
2024-01-22T11:16:34.149Z,37.30
2024-01-22T11:19:06.475Z,37.94
2024-01-22T11:21:40.333Z,39.25
2024-01-22T11:24:15.885Z,38.18
2024-01-22T11:26:55.170Z,38.07
2024-01-22T11:29:28.098Z,37.23
2024-01-22T11:31:56.014Z,38.94
2024-01-22T11:34:42.804Z,39.52
2024-01-22T11:37:12.656Z,38.62
2024-01-22T11:39:48.498Z,39.19
2024-01-22T11:42:24.511Z,38.23
2024-01-22T11:44:53.258Z,38.98
2024-01-22T11:47:23.011Z,38.11
2024-01-22T11:50:00.698Z,37.00
2024-01-22T11:52:28.059Z,37.40
2024-01-22T11:54:58.025Z,37.42
2024-01-22T11:57:27.678Z,36.23
2024-01-22T12:00:23.568Z,35.61
2024-01-22T12:02:51.792Z,34.38
2024-01-22T12:05:20.777Z,34.31
2024-01-22T12:07:50.674Z,34.26
2024-01-22T12:10:28.223Z,34.10
2024-01-22T12:13:09.583Z,33.68
2024-01-22T12:15:36.750Z,34.29
2024-01-22T12:18:05.192Z,34.23
2024-01-22T12:20:32.752Z,34.57
2024-01-22T12:23:05.550Z,35.42
2024-01-22T12:25:39.433Z,35.74
2024-01-22T12:28:17.831Z,35.89
2024-01-22T12:30:48.499Z,35.74
2024-01-22T12:33:26.599Z,36.63
2024-01-22T12:36:09.388Z,36.06
2024-01-22T12:38:52.098Z,36.39
2024-01-22T12:41:21.054Z,36.62
2024-01-22T12:43:50.043Z,37.23
2024-01-22T12:46:20.887Z,36.20
2024-01-22T12:48:48.799Z,36.12
2024-01-22T12:51:18.026Z,36.33
2024-01-22T12:53:48.463Z,36.13
2024-01-22T12:56:16.486Z,36.48
2024-01-22T12:58:44.272Z,37.81
2024-01-22T13:01:14.149Z,38.87
2024-01-22T13:03:41.661Z,38.34
2024-01-22T13:06:09.098Z,38.37
2024-01-22T13:08:36.546Z,39.43
2024-01-22T13:11:04.048Z,39.63
2024-01-22T13:13:31.749Z,39.24
2024-01-22T13:16:12.398Z,39.03
2024-01-22T13:18:46.140Z,39.04
2024-01-22T13:21:17.305Z,39.55
2024-01-22T13:23:45.531Z,39.64
2024-01-22T13:26:13.863Z,40.75
2024-01-22T13:28:41.208Z,41.25
2024-01-22T13:31:10.395Z,42.00
2024-01-22T13:33:41.810Z,43.29
2024-01-22T13:36:12.416Z,44.96
2024-01-22T13:38:42.904Z,46.21
2024-01-22T13:41:10.269Z,47.87
2024-01-22T13:43:37.070Z,49.43
2024-01-22T13:46:06.638Z,50.62
2024-01-22T13:48:34.344Z,51.12
2024-01-22T13:51:01.656Z,50.11
2024-01-22T13:53:30.305Z,49.55
2024-01-22T13:55:57.174Z,49.57
2024-01-22T13:58:24.239Z,50.10
2024-01-22T14:00:51.209Z,50.10
2024-01-22T14:03:18.726Z,50.52
2024-01-22T14:05:46.903Z,50.48
2024-01-22T14:08:15.894Z,50.60
2024-01-22T14:10:44.061Z,51.18
2024-01-22T14:13:11.640Z,51.17
2024-01-22T14:15:38.777Z,52.39
2024-01-22T14:18:06.303Z,53.39
2024-01-22T14:20:33.325Z,54.05
2024-01-22T14:23:07.766Z,55.05
2024-01-22T14:25:36.892Z,57.65
2024-01-22T14:28:04.062Z,59.01
2024-01-22T14:30:31.402Z,60.23
2024-01-22T14:32:58.634Z,61.53
2024-01-22T14:35:26.410Z,61.33
2024-01-22T14:37:53.386Z,61.73
2024-01-22T14:40:22.444Z,60.75
2024-01-22T14:42:49.576Z,62.40
2024-01-22T14:45:16.686Z,61.64
2024-01-22T14:47:43.855Z,62.97
2024-01-22T14:50:11.190Z,63.66
2024-01-22T14:52:38.778Z,64.12
2024-01-22T14:55:08.330Z,64.17
2024-01-22T14:57:35.109Z,64.88
2024-01-22T15:00:01.935Z,63.79
2024-01-22T15:02:29.277Z,63.70
2024-01-22T15:04:56.408Z,64.56
2024-01-22T15:07:23.626Z,64.84
2024-01-22T15:09:50.827Z,64.94
2024-01-22T15:12:17.983Z,65.20
2024-01-22T15:14:45.289Z,66.01
2024-01-22T15:17:13.348Z,65.90
2024-01-22T15:19:40.311Z,65.78
2024-01-22T15:22:08.354Z,64.73
2024-01-22T15:24:35.423Z,64.97
2024-01-22T15:27:03.304Z,65.18
2024-01-22T15:29:30.584Z,65.49
2024-01-22T15:31:58.144Z,65.30
2024-01-22T15:34:25.300Z,64.42
2024-01-22T15:36:52.195Z,64.07
2024-01-22T15:39:22.011Z,64.97
2024-01-22T15:41:49.120Z,64.97
2024-01-22T15:44:16.022Z,65.18
2024-01-22T15:46:43.115Z,65.67
2024-01-22T15:49:18.375Z,65.04
2024-01-22T15:51:46.973Z,65.39
2024-01-22T15:54:13.973Z,65.12
2024-01-22T15:56:40.823Z,65.28
2024-01-22T15:59:09.331Z,65.66
2024-01-22T16:01:38.744Z,65.29
2024-01-22T16:04:06.276Z,65.98
2024-01-22T16:06:41.665Z,66.04
2024-01-22T16:09:17.234Z,66.40
2024-01-22T16:11:44.308Z,66.17
2024-01-22T16:14:11.037Z,65.92
2024-01-22T16:16:38.202Z,65.13
2024-01-22T16:19:05.572Z,65.16
2024-01-22T16:21:35.901Z,65.29
2024-01-22T16:24:03.379Z,65.08
2024-01-22T16:26:31.393Z,64.73
2024-01-22T16:28:58.570Z,63.58
2024-01-22T16:31:25.934Z,63.32
2024-01-22T16:33:53.005Z,64.51
2024-01-22T16:36:23.461Z,64.82
2024-01-22T16:38:50.976Z,64.05
2024-01-22T16:41:20.193Z,63.75
2024-01-22T16:43:47.747Z,63.48
2024-01-22T16:46:15.330Z,62.72
2024-01-22T16:48:42.347Z,63.40
2024-01-22T16:51:10.337Z,63.03
2024-01-22T16:53:38.004Z,64.25
2024-01-22T16:56:06.970Z,63.27
2024-01-22T16:58:34.044Z,62.74
2024-01-22T17:01:00.809Z,63.48
2024-01-22T17:03:28.574Z,62.73
2024-01-22T17:05:56.479Z,64.30
2024-01-22T17:08:23.790Z,64.42
2024-01-22T17:10:50.959Z,65.81
2024-01-22T17:13:18.396Z,64.44
2024-01-22T17:15:46.171Z,63.80
2024-01-22T17:18:13.913Z,64.64
2024-01-22T17:20:41.131Z,64.42
2024-01-22T17:23:09.381Z,64.00
2024-01-22T17:25:36.635Z,64.50
2024-01-22T17:28:03.892Z,64.05
2024-01-22T17:30:32.041Z,64.41
2024-01-22T17:32:58.938Z,64.20
2024-01-22T17:35:26.015Z,64.14
2024-01-22T17:37:54.369Z,64.51
2024-01-22T17:40:21.624Z,64.69
2024-01-22T17:42:49.374Z,64.31
2024-01-22T17:45:17.472Z,64.51
2024-01-22T17:47:44.979Z,64.98
2024-01-22T17:50:12.087Z,65.95
2024-01-22T17:52:38.933Z,66.34
2024-01-22T17:55:06.949Z,66.63
2024-01-22T17:57:33.799Z,66.80
2024-01-22T18:00:04.078Z,67.25
2024-01-22T18:02:32.302Z,67.79
2024-01-22T18:05:01.346Z,68.56
2024-01-22T18:07:28.228Z,68.23
2024-01-22T18:09:55.310Z,68.22
2024-01-22T18:12:23.262Z,68.51
2024-01-22T18:14:50.490Z,68.66
2024-01-22T18:17:17.627Z,67.70
2024-01-22T18:19:44.529Z,67.99
2024-01-22T18:22:11.465Z,68.09
2024-01-22T18:24:38.353Z,68.24
2024-01-22T18:27:05.763Z,67.87
2024-01-22T18:29:33.530Z,67.47
2024-01-22T18:32:00.478Z,66.92
2024-01-22T18:34:27.547Z,67.15
2024-01-22T18:36:55.373Z,66.79
2024-01-22T18:39:22.269Z,66.87
2024-01-22T18:41:49.288Z,66.82
2024-01-22T18:44:16.290Z,67.05
2024-01-22T18:46:43.136Z,67.36
2024-01-22T18:49:10.261Z,66.63
2024-01-22T18:51:37.711Z,66.79
2024-01-22T18:54:05.106Z,66.66
2024-01-22T18:56:33.798Z,67.23
2024-01-22T18:59:01.636Z,68.08
2024-01-22T19:01:28.756Z,68.64
2024-01-22T19:03:55.608Z,67.93
2024-01-22T19:06:22.742Z,68.56
2024-01-22T19:08:49.573Z,70.09
2024-01-22T19:11:18.405Z,70.45
2024-01-22T19:13:45.504Z,70.52
2024-01-22T19:16:14.139Z,69.71
2024-01-22T19:18:42.415Z,71.33
2024-01-22T19:21:09.384Z,70.80
2024-01-22T19:23:36.596Z,71.73
2024-01-22T19:26:03.683Z,71.32
2024-01-22T19:28:30.859Z,72.81
2024-01-22T19:30:58.818Z,71.39
2024-01-22T19:33:26.246Z,73.46
2024-01-22T19:35:53.254Z,74.93
2024-01-22T19:38:21.881Z,74.70
2024-01-22T19:40:51.360Z,74.76
2024-01-22T19:43:21.630Z,73.93
2024-01-22T19:45:48.558Z,74.66
2024-01-22T19:48:15.497Z,75.40
2024-01-22T19:50:43.179Z,75.43
2024-01-22T19:53:10.106Z,74.93
2024-01-22T19:55:37.050Z,74.67
2024-01-22T19:58:04.508Z,74.52
2024-01-22T20:00:31.931Z,74.26
2024-01-22T20:02:59.673Z,75.28
2024-01-22T20:05:26.696Z,73.72
2024-01-22T20:07:54.250Z,74.16
2024-01-22T20:10:22.294Z,74.67
2024-01-22T20:12:49.880Z,74.92
2024-01-22T20:15:18.912Z,74.83
2024-01-22T20:17:45.856Z,73.72
2024-01-22T20:20:13.274Z,74.86
2024-01-22T20:22:40.264Z,75.30
2024-01-22T20:25:07.579Z,74.65
2024-01-22T20:27:34.881Z,75.58
2024-01-22T20:30:02.661Z,74.57
2024-01-22T20:32:29.650Z,74.89
2024-01-22T20:34:56.734Z,73.79
2024-01-22T20:37:23.686Z,73.54
2024-01-22T20:39:50.875Z,73.54
2024-01-22T20:42:24.079Z,74.59
2024-01-22T20:44:51.543Z,74.11
2024-01-22T20:47:18.827Z,71.79
2024-01-22T20:49:45.906Z,73.18
2024-01-22T20:52:12.842Z,72.58
2024-01-22T20:54:40.033Z,73.13
2024-01-22T20:57:07.105Z,72.72
2024-01-22T20:59:34.179Z,73.70
2024-01-22T21:02:01.251Z,73.68
2024-01-22T21:04:28.820Z,72.14
2024-01-22T21:06:56.342Z,72.43
2024-01-22T21:09:23.484Z,72.42
2024-01-22T21:11:50.835Z,71.63
2024-01-22T21:14:18.248Z,71.89
2024-01-22T21:16:47.384Z,71.59
2024-01-22T21:19:15.270Z,71.98
2024-01-22T21:21:46.865Z,69.98
2024-01-22T21:24:15.115Z,70.82
2024-01-22T21:26:46.282Z,69.86
2024-01-22T21:29:14.102Z,70.08
2024-01-22T21:31:40.971Z,70.15
2024-01-22T21:34:07.788Z,69.73
2024-01-22T21:36:34.781Z,68.91
2024-01-22T21:39:02.033Z,68.76
2024-01-22T21:41:29.168Z,69.17
2024-01-22T21:43:56.167Z,69.06
2024-01-22T21:46:23.240Z,67.82
2024-01-22T21:48:50.580Z,68.77
2024-01-22T21:51:17.461Z,68.98
2024-01-22T21:53:45.851Z,68.99
2024-01-22T21:56:13.069Z,69.54
2024-01-22T21:58:40.959Z,69.11
2024-01-22T22:01:09.035Z,69.07
2024-01-22T22:03:37.077Z,68.79
2024-01-22T22:06:06.277Z,68.88
2024-01-22T22:08:37.512Z,69.93
2024-01-22T22:11:08.207Z,68.67
2024-01-22T22:13:35.374Z,68.89
2024-01-22T22:16:02.362Z,68.68
2024-01-22T22:18:29.600Z,68.97
2024-01-22T22:20:56.697Z,69.15
2024-01-22T22:23:29.779Z,69.32
2024-01-22T22:25:56.948Z,69.67
2024-01-22T22:28:23.814Z,69.40
2024-01-22T22:30:53.503Z,69.31
2024-01-22T22:33:23.262Z,69.54
2024-01-22T22:35:50.785Z,70.60
2024-01-22T22:38:17.906Z,68.57
2024-01-22T22:40:44.872Z,69.31
2024-01-22T22:43:12.242Z,69.85
2024-01-22T22:45:39.066Z,69.07
2024-01-22T22:48:06.520Z,69.19
2024-01-22T22:50:33.582Z,69.80
2024-01-22T22:53:00.382Z,70.09
2024-01-22T22:55:27.250Z,70.13
2024-01-22T22:57:55.684Z,70.65
2024-01-22T23:00:22.579Z,71.14
2024-01-22T23:02:49.662Z,71.66
2024-01-22T23:05:19.055Z,71.12
2024-01-22T23:07:46.450Z,71.20
2024-01-22T23:10:14.028Z,71.05
2024-01-22T23:12:40.795Z,70.63
2024-01-22T23:15:08.480Z,69.93
2024-01-22T23:17:35.580Z,71.77
2024-01-22T23:20:02.473Z,71.05
2024-01-22T23:22:29.552Z,72.46
2024-01-22T23:24:56.405Z,71.67
2024-01-22T23:27:23.350Z,71.26
2024-01-22T23:29:50.210Z,72.50
2024-01-22T23:32:17.365Z,70.91
2024-01-22T23:34:44.321Z,71.70
2024-01-22T23:37:11.426Z,72.14
2024-01-22T23:39:38.364Z,71.81
2024-01-22T23:42:06.275Z,71.60
2024-01-22T23:44:33.071Z,71.72
2024-01-22T23:46:59.962Z,71.11
2024-01-22T23:49:29.781Z,71.67
2024-01-22T23:51:56.850Z,70.82
2024-01-22T23:54:23.617Z,71.09
2024-01-22T23:56:50.535Z,71.09
2024-01-22T23:59:17.388Z,70.82
